Terminal Aerodrome Forecast
Issued by NWS Pocatello, ID

Home | Current Version | Previous Version | Text Only | Print | Product List | Glossary On
Versions: 1 2 3 4 5 6 7 8 9 10 11 12 13 14
000
FTUS45 KPIH 180000 AAA
TAFPIH
TAF AMD
KPIH 180023Z 1800/1824 21007KT P6SM -TSRA SCT100CB BKN200
     FM180200 VRB06KT P6SM VCTS SCT080CB SCT120 BKN200
     FM180400 VRB05KT P6SM SCT100 BKN250
     FM181000 18008KT P6SM SCT080 BKN120
     FM181500 22011G20KT P6SM -SHRA SCT050 BKN100
     FM182000 22012G20KT P6SM VCTS SCT060CB BKN120=

USA.gov is the U.S. government's official web portal to all federal, state and local government web resources and services.